createdAt,value
2018-12-14T00:01:10.110Z,2.70
2018-12-14T00:03:38.536Z,2.60
2018-12-14T00:06:13.399Z,2.60
2018-12-14T00:08:41.840Z,2.50
2018-12-14T00:11:10.277Z,2.60
2018-12-14T00:13:38.721Z,2.50
2018-12-14T00:16:07.267Z,2.50
2018-12-14T00:18:35.694Z,2.50
2018-12-14T00:21:10.939Z,2.50
2018-12-14T00:23:39.389Z,2.40
2018-12-14T00:26:07.825Z,2.40
2018-12-14T00:28:36.249Z,2.50
2018-12-14T00:31:04.674Z,2.40
2018-12-14T00:33:33.161Z,2.40
2018-12-14T00:36:01.757Z,2.40
2018-12-14T00:38:30.539Z,2.50
2018-12-14T00:40:59.117Z,2.40
2018-12-14T00:43:27.508Z,2.40
2018-12-14T00:45:55.967Z,2.40
2018-12-14T00:48:24.375Z,2.40
2018-12-14T00:50:52.807Z,2.40
2018-12-14T00:53:21.219Z,2.40
2018-12-14T00:55:49.641Z,2.40
2018-12-14T00:58:18.049Z,2.40
2018-12-14T01:00:46.515Z,2.40
2018-12-14T01:03:14.951Z,2.50
2018-12-14T01:05:43.343Z,2.40
2018-12-14T01:08:11.768Z,2.40
2018-12-14T01:10:40.139Z,2.40
2018-12-14T01:13:08.687Z,2.40
2018-12-14T01:15:37.325Z,2.40
2018-12-14T01:18:05.766Z,2.40
2018-12-14T01:20:34.190Z,2.30
2018-12-14T01:23:02.595Z,2.30
2018-12-14T01:25:31.005Z,2.40
2018-12-14T01:27:59.427Z,2.40
2018-12-14T01:30:27.809Z,2.30
2018-12-14T01:32:56.203Z,2.30
2018-12-14T01:35:24.603Z,2.30
2018-12-14T01:37:53.023Z,2.20
2018-12-14T01:40:21.554Z,2.10
2018-12-14T01:42:49.971Z,2.10
2018-12-14T01:45:18.371Z,2.20
2018-12-14T01:47:46.754Z,2.20
2018-12-14T01:50:15.172Z,2.20
2018-12-14T01:52:43.583Z,2.20
2018-12-14T01:55:12.035Z,2.20
2018-12-14T01:57:41.270Z,2.30
2018-12-14T02:00:09.723Z,2.30
2018-12-14T02:02:38.099Z,2.20
2018-12-14T02:05:06.672Z,2.20
2018-12-14T02:07:35.064Z,2.30
2018-12-14T02:10:03.954Z,2.30
2018-12-14T02:12:32.351Z,2.30
2018-12-14T02:15:00.791Z,2.30
2018-12-14T02:17:29.306Z,2.30
2018-12-14T02:19:57.717Z,2.30
2018-12-14T02:22:26.110Z,2.30
2018-12-14T02:24:54.647Z,2.30
2018-12-14T02:27:23.051Z,2.30
2018-12-14T02:29:51.472Z,2.30
2018-12-14T02:32:19.876Z,2.40
2018-12-14T02:34:48.287Z,2.30
2018-12-14T02:37:16.700Z,2.20
2018-12-14T02:39:45.071Z,2.20
2018-12-14T02:42:19.298Z,2.30
2018-12-14T02:44:43.929Z,2.30
2018-12-14T02:47:12.343Z,2.30
2018-12-14T02:49:40.745Z,2.40
2018-12-14T02:52:09.151Z,2.40
2018-12-14T02:54:37.551Z,2.30
2018-12-14T02:57:05.968Z,2.40
2018-12-14T02:59:34.367Z,2.40
2018-12-14T03:02:02.789Z,2.30
2018-12-14T03:04:31.191Z,2.30
2018-12-14T03:06:59.627Z,2.30
2018-12-14T03:09:28.042Z,2.30
2018-12-14T03:11:56.442Z,2.40
2018-12-14T03:14:25.073Z,2.30
2018-12-14T03:16:53.712Z,2.30
2018-12-14T03:19:22.104Z,2.30
2018-12-14T03:21:50.525Z,2.40
2018-12-14T03:24:18.916Z,2.40
2018-12-14T03:26:47.322Z,2.30
2018-12-14T03:29:15.935Z,2.20
2018-12-14T03:31:44.365Z,2.20
2018-12-14T03:34:12.752Z,2.20
2018-12-14T03:36:41.151Z,2.10
2018-12-14T03:39:09.571Z,2.10
2018-12-14T03:41:38.014Z,2.10
2018-12-14T03:44:06.440Z,2.20
2018-12-14T03:46:34.837Z,2.20
2018-12-14T03:49:03.272Z,2.20
2018-12-14T03:51:31.651Z,2.10
2018-12-14T03:54:00.075Z,2.20
2018-12-14T03:56:28.464Z,2.20
2018-12-14T03:58:56.855Z,2.10
2018-12-14T04:01:25.271Z,2.10
2018-12-14T04:03:53.677Z,2.20
2018-12-14T04:06:22.167Z,2.10
2018-12-14T04:08:50.579Z,2.10
2018-12-14T04:11:18.992Z,2.10
2018-12-14T04:13:47.427Z,2.10
2018-12-14T04:16:15.815Z,2.00
2018-12-14T04:18:44.370Z,2.00
2018-12-14T04:21:12.763Z,2.10
2018-12-14T04:23:41.419Z,2.10
2018-12-14T04:26:09.858Z,2.10
2018-12-14T04:28:38.244Z,2.00
2018-12-14T04:31:06.671Z,2.00
2018-12-14T04:33:35.385Z,2.00
2018-12-14T04:36:03.780Z,2.10
2018-12-14T04:38:32.193Z,2.10
2018-12-14T04:41:00.608Z,2.10
2018-12-14T04:43:28.995Z,2.10
2018-12-14T04:45:57.437Z,2.10
2018-12-14T04:48:25.819Z,2.10
2018-12-14T04:50:54.228Z,2.10
2018-12-14T04:53:22.619Z,2.00
2018-12-14T04:55:51.017Z,2.00
2018-12-14T04:58:19.407Z,2.00
2018-12-14T05:00:47.832Z,2.00
2018-12-14T05:03:16.239Z,2.00
2018-12-14T05:05:44.677Z,2.00
2018-12-14T05:08:13.079Z,2.00
2018-12-14T05:10:41.494Z,2.10
2018-12-14T05:13:09.896Z,2.00
2018-12-14T05:15:38.286Z,2.10
2018-12-14T05:18:06.757Z,2.10
2018-12-14T05:20:41.859Z,2.10
2018-12-14T05:23:10.278Z,2.00
2018-12-14T05:25:38.686Z,2.00
2018-12-14T05:28:07.147Z,2.10
2018-12-14T05:30:35.552Z,2.00
2018-12-14T05:33:03.965Z,2.00
2018-12-14T05:35:32.361Z,2.00
2018-12-14T05:38:00.774Z,2.00
2018-12-14T05:40:29.178Z,2.10
2018-12-14T05:43:02.533Z,2.10
2018-12-14T05:45:28.004Z,2.00
2018-12-14T05:47:56.441Z,2.10
2018-12-14T05:50:24.804Z,2.10
2018-12-14T05:52:53.220Z,2.10
2018-12-14T05:55:21.613Z,2.10
2018-12-14T05:57:50.160Z,2.10
2018-12-14T06:00:18.652Z,2.10
2018-12-14T06:02:47.064Z,2.10
2018-12-14T06:05:22.196Z,2.20
2018-12-14T06:07:50.619Z,2.20
2018-12-14T06:10:19.130Z,2.10
2018-12-14T06:12:47.540Z,2.10
2018-12-14T06:15:15.967Z,2.10
2018-12-14T06:17:44.370Z,2.10
2018-12-14T06:20:12.774Z,2.00
2018-12-14T06:22:41.170Z,2.10
2018-12-14T06:25:09.562Z,2.10
2018-12-14T06:27:37.947Z,2.10
2018-12-14T06:30:07.023Z,2.10
2018-12-14T06:32:35.513Z,2.10
2018-12-14T06:35:04.353Z,2.10
2018-12-14T06:37:32.738Z,2.10
2018-12-14T06:40:01.132Z,2.10
2018-12-14T06:42:29.585Z,2.10
2018-12-14T06:44:58.442Z,2.10
2018-12-14T06:47:28.544Z,2.10
2018-12-14T06:49:56.955Z,2.10
2018-12-14T06:52:25.399Z,2.10
2018-12-14T06:54:53.927Z,2.10
2018-12-14T06:57:22.338Z,2.10
2018-12-14T06:59:50.799Z,2.10
2018-12-14T07:02:19.243Z,2.10
2018-12-14T07:04:47.648Z,2.10
2018-12-14T07:07:16.054Z,2.10
2018-12-14T07:09:44.444Z,2.10
2018-12-14T07:12:12.873Z,2.10
2018-12-14T07:14:41.300Z,2.10
2018-12-14T07:17:09.709Z,2.10
2018-12-14T07:19:38.101Z,2.10
2018-12-14T07:22:06.514Z,2.10
2018-12-14T07:24:35.056Z,2.20
2018-12-14T07:27:03.477Z,2.10
2018-12-14T07:29:31.884Z,2.10
2018-12-14T07:32:00.292Z,2.20
2018-12-14T07:34:28.680Z,2.10
2018-12-14T07:36:57.092Z,2.10
2018-12-14T07:39:25.510Z,2.10
2018-12-14T07:41:53.928Z,2.10
2018-12-14T07:44:22.391Z,2.00
2018-12-14T07:46:50.945Z,2.10
2018-12-14T07:49:19.377Z,2.10
2018-12-14T07:51:47.759Z,2.10
2018-12-14T07:54:16.206Z,2.10
2018-12-14T07:56:44.708Z,2.10
2018-12-14T07:59:13.459Z,2.10
2018-12-14T08:01:41.867Z,2.10
2018-12-14T08:04:10.427Z,2.10
2018-12-14T08:06:38.905Z,2.10
2018-12-14T08:09:07.763Z,2.10
2018-12-14T08:11:36.184Z,2.10
2018-12-14T08:14:04.739Z,2.10
2018-12-14T08:16:33.156Z,2.20
2018-12-14T08:19:01.562Z,2.20
2018-12-14T08:21:29.974Z,2.20
2018-12-14T08:23:58.377Z,2.20
2018-12-14T08:26:26.812Z,2.10
2018-12-14T08:28:56.127Z,2.10
2018-12-14T08:31:24.552Z,2.10
2018-12-14T08:33:52.944Z,2.20
2018-12-14T08:36:21.409Z,2.20
2018-12-14T08:38:49.815Z,2.30
2018-12-14T08:41:18.273Z,2.20
2018-12-14T08:43:46.683Z,2.20
2018-12-14T08:46:15.119Z,2.20
2018-12-14T08:48:43.524Z,2.40
2018-12-14T08:51:11.921Z,2.40
2018-12-14T08:53:40.400Z,2.40
2018-12-14T08:56:08.833Z,2.60
2018-12-14T08:58:37.263Z,2.60
2018-12-14T09:01:05.677Z,2.50
2018-12-14T09:03:34.093Z,2.40
2018-12-14T09:06:02.488Z,2.40
2018-12-14T09:08:30.939Z,2.40
2018-12-14T09:10:59.346Z,2.30
2018-12-14T09:13:27.787Z,2.30
2018-12-14T09:15:56.211Z,2.30
2018-12-14T09:18:24.649Z,2.30
2018-12-14T09:20:53.079Z,2.30
2018-12-14T09:23:21.753Z,2.40
2018-12-14T09:25:50.186Z,2.40
2018-12-14T09:28:18.607Z,2.40
2018-12-14T09:30:47.077Z,2.50
2018-12-14T09:33:15.557Z,2.50
2018-12-14T09:35:44.032Z,2.40
2018-12-14T09:38:12.449Z,2.30
2018-12-14T09:40:40.900Z,2.40
2018-12-14T09:43:09.301Z,2.30
2018-12-14T09:45:37.704Z,2.30
2018-12-14T09:48:06.108Z,2.40
2018-12-14T09:50:34.573Z,2.40
2018-12-14T09:53:03.014Z,2.50
2018-12-14T09:55:31.420Z,2.40
2018-12-14T09:57:59.836Z,2.30
2018-12-14T10:00:28.260Z,2.40
2018-12-14T10:02:56.686Z,2.30
2018-12-14T10:05:25.141Z,2.40
2018-12-14T10:07:53.560Z,2.50
2018-12-14T10:10:21.976Z,2.40
2018-12-14T10:12:50.388Z,2.40
2018-12-14T10:15:18.820Z,2.30
2018-12-14T10:17:47.280Z,2.30
2018-12-14T10:20:15.720Z,2.30
2018-12-14T10:22:44.163Z,2.40
2018-12-14T10:25:12.608Z,2.40
2018-12-14T10:27:41.036Z,2.40
2018-12-14T10:30:09.814Z,2.30
2018-12-14T10:32:38.268Z,2.30
2018-12-14T10:35:08.439Z,2.30
2018-12-14T10:37:37.008Z,2.30
2018-12-14T10:40:06.631Z,2.40
2018-12-14T10:42:35.075Z,2.40
2018-12-14T10:45:04.234Z,2.40
2018-12-14T10:47:32.890Z,2.50
2018-12-14T10:50:07.687Z,2.40
2018-12-14T10:52:36.181Z,2.40
2018-12-14T10:55:05.395Z,2.40
2018-12-14T10:57:34.280Z,2.40
2018-12-14T11:00:02.788Z,2.40
2018-12-14T11:02:31.198Z,2.50
2018-12-14T11:04:59.598Z,2.60
2018-12-14T11:07:28.038Z,2.70
2018-12-14T11:09:56.493Z,2.70
2018-12-14T11:12:24.923Z,2.50
2018-12-14T11:14:53.330Z,2.50
2018-12-14T11:17:21.752Z,2.50
2018-12-14T11:19:50.180Z,2.50
2018-12-14T11:22:18.601Z,2.60
2018-12-14T11:24:47.042Z,2.60
2018-12-14T11:27:15.477Z,2.60
2018-12-14T11:29:43.912Z,2.50
2018-12-14T11:32:12.312Z,2.60
2018-12-14T11:34:40.761Z,2.60
2018-12-14T11:37:09.577Z,2.60
2018-12-14T11:39:38.031Z,2.50
2018-12-14T11:42:06.455Z,2.50
2018-12-14T11:44:34.889Z,2.50
2018-12-14T11:47:03.310Z,2.60
2018-12-14T11:49:31.744Z,2.60
2018-12-14T11:52:00.150Z,2.60
2018-12-14T11:54:28.572Z,2.60
2018-12-14T11:56:56.998Z,2.60
2018-12-14T11:59:25.432Z,2.70
2018-12-14T12:01:53.878Z,2.70
2018-12-14T12:04:22.272Z,2.70
2018-12-14T12:06:50.712Z,2.60
2018-12-14T12:09:19.146Z,2.70
2018-12-14T12:11:47.587Z,2.70
2018-12-14T12:14:16.001Z,2.60
2018-12-14T12:16:44.423Z,2.50
2018-12-14T12:19:12.837Z,2.50
2018-12-14T12:21:41.388Z,2.50
2018-12-14T12:24:09.800Z,2.60
2018-12-14T12:26:38.238Z,2.50
2018-12-14T12:29:07.382Z,2.60
2018-12-14T12:31:35.837Z,2.70
2018-12-14T12:34:04.235Z,2.60
2018-12-14T12:36:32.649Z,2.50
2018-12-14T12:39:01.059Z,2.50
2018-12-14T12:41:29.491Z,2.50
2018-12-14T12:43:57.982Z,2.60
2018-12-14T12:46:26.581Z,2.60
2018-12-14T12:48:55.435Z,2.70
2018-12-14T12:51:23.980Z,2.80
2018-12-14T12:53:52.401Z,2.90
2018-12-14T12:56:21.580Z,2.80
2018-12-14T12:58:49.997Z,2.90
2018-12-14T13:01:18.425Z,2.80
2018-12-14T13:03:46.863Z,2.80
2018-12-14T13:06:15.272Z,2.70
2018-12-14T13:08:43.702Z,2.60
2018-12-14T13:11:12.115Z,2.60
2018-12-14T13:13:40.629Z,2.60
2018-12-14T13:16:09.051Z,2.60
2018-12-14T13:18:37.447Z,2.50
2018-12-14T13:21:06.780Z,2.50
2018-12-14T13:23:36.404Z,2.50
2018-12-14T13:26:05.040Z,2.40
2018-12-14T13:28:33.707Z,2.50
2018-12-14T13:31:02.140Z,2.60
2018-12-14T13:33:30.546Z,2.50
2018-12-14T13:35:58.954Z,2.50
2018-12-14T13:38:27.365Z,2.60
2018-12-14T13:40:55.912Z,2.40
2018-12-14T13:43:24.309Z,2.40
2018-12-14T13:45:53.138Z,2.50
2018-12-14T13:48:21.799Z,2.40
2018-12-14T13:50:50.287Z,2.50
2018-12-14T13:53:18.891Z,2.40
2018-12-14T13:55:47.278Z,2.40
2018-12-14T13:58:15.724Z,2.40
2018-12-14T14:00:44.161Z,2.40
2018-12-14T14:03:12.600Z,2.50
2018-12-14T14:05:41.052Z,2.50
2018-12-14T14:08:09.460Z,2.40
2018-12-14T14:10:37.957Z,2.40
2018-12-14T14:13:06.396Z,2.40
2018-12-14T14:15:34.823Z,2.50
2018-12-14T14:18:03.247Z,2.40
2018-12-14T14:20:31.634Z,2.50
2018-12-14T14:23:00.098Z,2.50
2018-12-14T14:25:28.836Z,2.50
2018-12-14T14:27:57.311Z,2.40
2018-12-14T14:30:25.728Z,2.40
2018-12-14T14:32:54.165Z,2.50
2018-12-14T14:35:22.575Z,2.50
2018-12-14T14:37:57.263Z,2.50
2018-12-14T14:40:21.432Z,2.40
2018-12-14T14:42:49.816Z,2.50
2018-12-14T14:45:18.307Z,2.50
2018-12-14T14:47:46.737Z,2.40
2018-12-14T14:50:15.286Z,2.50
2018-12-14T14:52:43.724Z,2.50
2018-12-14T14:55:12.294Z,2.60
2018-12-14T14:57:41.147Z,2.50
2018-12-14T15:00:09.693Z,2.50
2018-12-14T15:02:38.269Z,2.50
2018-12-14T15:05:06.941Z,2.40
2018-12-14T15:07:35.366Z,2.40
2018-12-14T15:10:04.389Z,2.40
2018-12-14T15:12:32.796Z,2.40
2018-12-14T15:15:06.542Z,2.40
2018-12-14T15:17:32.726Z,2.40
2018-12-14T15:20:01.125Z,2.40
2018-12-14T15:22:29.571Z,2.40
2018-12-14T15:24:58.271Z,2.30
2018-12-14T15:27:26.707Z,2.30
2018-12-14T15:29:55.087Z,2.40
2018-12-14T15:32:23.837Z,2.40
2018-12-14T15:34:52.239Z,2.30
2018-12-14T15:37:20.653Z,2.40
2018-12-14T15:39:49.235Z,2.30
2018-12-14T15:42:17.659Z,2.40
2018-12-14T15:44:46.075Z,2.40
2018-12-14T15:47:14.476Z,2.40
2018-12-14T15:49:42.896Z,2.40
2018-12-14T15:52:11.311Z,2.40
2018-12-14T15:54:39.756Z,2.40
2018-12-14T15:57:08.255Z,2.40
2018-12-14T15:59:36.715Z,2.40
2018-12-14T16:02:05.960Z,2.40
2018-12-14T16:04:34.397Z,2.40
2018-12-14T16:07:02.847Z,2.40
2018-12-14T16:09:31.260Z,2.40
2018-12-14T16:11:59.687Z,2.30
2018-12-14T16:14:34.163Z,2.30
2018-12-14T16:17:05.421Z,2.40
2018-12-14T16:19:33.896Z,2.40
2018-12-14T16:22:02.423Z,2.40
2018-12-14T16:24:30.962Z,2.40
2018-12-14T16:26:59.491Z,2.40
2018-12-14T16:29:27.913Z,2.40
2018-12-14T16:31:56.443Z,2.40
2018-12-14T16:34:24.900Z,2.50
2018-12-14T16:36:53.301Z,2.40
2018-12-14T16:39:21.848Z,2.40
2018-12-14T16:41:50.608Z,2.40
2018-12-14T16:44:19.027Z,2.30
2018-12-14T16:46:47.483Z,2.40
2018-12-14T16:49:15.907Z,2.30
2018-12-14T16:51:44.337Z,2.30
2018-12-14T16:54:12.795Z,2.30
2018-12-14T16:56:41.219Z,2.30
2018-12-14T16:59:09.619Z,2.30
2018-12-14T17:01:38.172Z,2.40
2018-12-14T17:04:06.591Z,2.40
2018-12-14T17:06:35.091Z,2.40
2018-12-14T17:09:04.753Z,2.40
2018-12-14T17:11:33.277Z,2.40
2018-12-14T17:14:01.688Z,2.30
2018-12-14T17:16:30.103Z,2.30
2018-12-14T17:18:58.919Z,2.30
2018-12-14T17:21:28.067Z,2.40
2018-12-14T17:23:56.484Z,2.40
2018-12-14T17:26:24.973Z,2.50
2018-12-14T17:28:53.407Z,2.40
2018-12-14T17:31:21.824Z,2.40
2018-12-14T17:33:50.262Z,2.40
2018-12-14T17:36:18.789Z,2.40
2018-12-14T17:38:47.223Z,2.30
2018-12-14T17:41:15.702Z,2.40
2018-12-14T17:43:44.165Z,2.40
2018-12-14T17:46:12.574Z,2.40
2018-12-14T17:48:43.328Z,2.40
2018-12-14T17:51:11.915Z,2.40
2018-12-14T17:53:40.329Z,2.30
2018-12-14T17:56:08.746Z,2.30
2018-12-14T17:58:37.145Z,2.30
2018-12-14T18:01:05.547Z,2.30
2018-12-14T18:03:34.044Z,2.30
2018-12-14T18:06:02.483Z,2.30
2018-12-14T18:08:30.905Z,2.30
2018-12-14T18:10:59.325Z,2.30
2018-12-14T18:13:27.762Z,2.30
2018-12-14T18:15:56.168Z,2.30
2018-12-14T18:18:24.618Z,2.30
2018-12-14T18:20:53.048Z,2.30
2018-12-14T18:23:21.469Z,2.20
2018-12-14T18:25:49.851Z,2.20
2018-12-14T18:28:18.269Z,2.20
2018-12-14T18:30:46.662Z,2.20
2018-12-14T18:33:15.166Z,2.30
2018-12-14T18:35:43.546Z,2.30
2018-12-14T18:38:11.967Z,2.30
2018-12-14T18:40:40.380Z,2.30
2018-12-14T18:43:08.823Z,2.20
2018-12-14T18:45:37.231Z,2.30
2018-12-14T18:48:06.551Z,2.20
2018-12-14T18:50:34.942Z,2.20
2018-12-14T18:53:03.386Z,2.20
2018-12-14T18:55:31.817Z,2.20
2018-12-14T18:58:00.232Z,2.20
2018-12-14T19:00:28.660Z,2.20
2018-12-14T19:02:57.072Z,2.20
2018-12-14T19:05:25.519Z,2.10
2018-12-14T19:07:53.928Z,2.20
2018-12-14T19:10:22.377Z,2.10
2018-12-14T19:12:50.819Z,2.10
2018-12-14T19:15:19.367Z,2.10
2018-12-14T19:17:47.764Z,2.10
2018-12-14T19:20:16.183Z,2.10
2018-12-14T19:22:44.575Z,2.10
2018-12-14T19:25:13.114Z,2.10
2018-12-14T19:27:41.538Z,2.10
2018-12-14T19:30:11.459Z,2.10
2018-12-14T19:32:39.888Z,2.10
2018-12-14T19:35:08.484Z,2.00
2018-12-14T19:37:36.870Z,2.00
2018-12-14T19:40:07.743Z,2.00
2018-12-14T19:42:36.189Z,2.00
2018-12-14T19:45:04.825Z,2.10
2018-12-14T19:47:33.779Z,2.10
2018-12-14T19:50:02.177Z,2.10
2018-12-14T19:52:30.614Z,2.10
2018-12-14T19:54:58.996Z,2.10
2018-12-14T19:57:27.550Z,2.10
2018-12-14T19:59:55.980Z,2.10
2018-12-14T20:02:24.551Z,2.10
2018-12-14T20:04:53.038Z,2.00
2018-12-14T20:07:21.497Z,2.10
2018-12-14T20:09:49.888Z,2.10
2018-12-14T20:12:18.348Z,2.10
2018-12-14T20:14:46.789Z,2.10
2018-12-14T20:17:15.335Z,2.00
2018-12-14T20:19:43.764Z,2.00
2018-12-14T20:22:12.189Z,2.00
2018-12-14T20:24:40.723Z,2.00
2018-12-14T20:27:09.185Z,2.00
2018-12-14T20:29:37.833Z,1.90
2018-12-14T20:32:06.377Z,1.90
2018-12-14T20:34:35.756Z,2.00
2018-12-14T20:37:10.832Z,1.90
2018-12-14T20:39:39.258Z,1.80
2018-12-14T20:42:07.724Z,1.90
2018-12-14T20:44:36.184Z,1.80
2018-12-14T20:47:04.585Z,1.80
2018-12-14T20:49:33.012Z,1.80
2018-12-14T20:52:01.454Z,1.80
2018-12-14T20:54:29.981Z,1.80
